createdAt,value
2019-01-11T00:01:01.424Z,6.90
2019-01-11T00:03:30.577Z,6.20
2019-01-11T00:05:59.745Z,7.60
2019-01-11T00:08:29.035Z,5.97
2019-01-11T00:10:58.181Z,6.60
2019-01-11T00:13:27.356Z,7.33
2019-01-11T00:15:56.661Z,5.97
2019-01-11T00:18:26.150Z,8.43
2019-01-11T00:20:55.424Z,7.33
2019-01-11T00:23:24.672Z,7.53
2019-01-11T00:25:53.999Z,7.60
2019-01-11T00:28:23.501Z,6.80
2019-01-11T00:30:52.777Z,8.03
2019-01-11T00:33:22.092Z,7.20
2019-01-11T00:35:51.290Z,7.07
2019-01-11T00:38:20.586Z,6.03
2019-01-11T00:40:49.887Z,7.97
2019-01-11T00:43:19.121Z,7.27
2019-01-11T00:45:48.306Z,6.60
2019-01-11T00:48:17.443Z,6.80
2019-01-11T00:50:46.823Z,7.57
2019-01-11T00:53:15.969Z,7.07
2019-01-11T00:55:45.344Z,6.70
2019-01-11T00:58:14.473Z,7.67
2019-01-11T01:00:43.750Z,6.73
2019-01-11T01:03:12.953Z,5.60
2019-01-11T01:05:42.178Z,5.37
2019-01-11T01:08:11.506Z,7.00
2019-01-11T01:10:41.310Z,6.13
2019-01-11T01:13:10.484Z,5.57
2019-01-11T01:15:39.689Z,7.23
2019-01-11T01:18:08.917Z,5.97
2019-01-11T01:20:38.518Z,5.90
2019-01-11T01:23:07.701Z,8.13
2019-01-11T01:25:37.021Z,6.23
2019-01-11T01:28:06.269Z,5.90
2019-01-11T01:30:35.565Z,7.63
2019-01-11T01:33:04.925Z,7.60
2019-01-11T01:35:34.447Z,7.40
2019-01-11T01:38:03.777Z,8.63
2019-01-11T01:40:32.961Z,6.20
2019-01-11T01:43:02.138Z,8.43
2019-01-11T01:45:31.313Z,7.20
2019-01-11T01:48:00.586Z,6.60
2019-01-11T01:50:29.837Z,6.23
2019-01-11T01:52:59.088Z,7.10
2019-01-11T01:55:28.310Z,8.40
2019-01-11T01:57:57.975Z,9.07
2019-01-11T02:00:27.333Z,8.63
2019-01-11T02:02:56.832Z,8.07
2019-01-11T02:05:26.140Z,8.27
2019-01-11T02:07:55.309Z,8.47
2019-01-11T02:10:24.505Z,8.53
2019-01-11T02:12:53.819Z,8.80
2019-01-11T02:15:22.964Z,8.10
2019-01-11T02:17:52.168Z,6.67
2019-01-11T02:20:21.373Z,7.40
2019-01-11T02:22:50.681Z,8.67
2019-01-11T02:25:19.964Z,8.03
2019-01-11T02:27:49.227Z,8.70
2019-01-11T02:30:20.693Z,8.83
2019-01-11T02:32:52.769Z,7.53
2019-01-11T02:35:20.884Z,8.10
2019-01-11T02:37:50.101Z,7.37
2019-01-11T02:40:19.324Z,7.83
2019-01-11T02:42:48.582Z,9.20
2019-01-11T02:45:19.942Z,9.97
2019-01-11T02:47:49.129Z,7.53
2019-01-11T02:50:18.387Z,9.53
2019-01-11T02:52:47.570Z,9.67
2019-01-11T02:55:16.704Z,8.30
2019-01-11T02:57:45.948Z,8.90
2019-01-11T03:00:21.613Z,6.90
2019-01-11T03:02:50.791Z,7.70
2019-01-11T03:05:20.064Z,9.10
2019-01-11T03:07:49.494Z,10.20
2019-01-11T03:10:20.741Z,10.13
2019-01-11T03:12:49.999Z,8.27
2019-01-11T03:15:19.804Z,8.57
2019-01-11T03:17:48.987Z,8.40
2019-01-11T03:20:18.665Z,7.67
2019-01-11T03:22:47.837Z,8.60
2019-01-11T03:25:17.235Z,8.13
2019-01-11T03:27:46.404Z,8.93
2019-01-11T03:30:17.485Z,9.53
2019-01-11T03:32:46.716Z,8.80
2019-01-11T03:35:16.930Z,9.40
2019-01-11T03:37:47.894Z,9.50
2019-01-11T03:40:18.267Z,8.30
2019-01-11T03:42:47.457Z,9.70
2019-01-11T03:45:17.923Z,7.83
2019-01-11T03:47:47.140Z,8.93
2019-01-11T03:50:17.009Z,9.07
2019-01-11T03:52:46.150Z,8.17
2019-01-11T03:55:17.091Z,8.20
2019-01-11T03:57:46.474Z,7.47
2019-01-11T04:00:23.437Z,7.20
2019-01-11T04:02:52.654Z,6.83
2019-01-11T04:05:21.885Z,8.27
2019-01-11T04:07:51.302Z,7.73
2019-01-11T04:10:24.491Z,7.80
2019-01-11T04:12:53.791Z,9.60
2019-01-11T04:15:23.490Z,6.93
2019-01-11T04:18:24.293Z,9.20
2019-01-11T04:20:53.552Z,6.97
2019-01-11T04:23:22.875Z,7.40
2019-01-11T04:25:52.070Z,7.97
2019-01-11T04:28:21.379Z,8.47
2019-01-11T04:30:50.681Z,7.50
2019-01-11T04:33:19.841Z,8.47
2019-01-11T04:35:49.094Z,7.70
2019-01-11T04:38:18.335Z,6.90
2019-01-11T04:40:47.503Z,6.87
2019-01-11T04:43:16.709Z,7.50
2019-01-11T04:45:46.053Z,8.47
2019-01-11T04:48:15.330Z,7.73
2019-01-11T04:50:44.853Z,7.50
2019-01-11T04:53:14.079Z,8.43
2019-01-11T04:55:43.336Z,8.90
2019-01-11T04:58:12.532Z,7.00
2019-01-11T05:00:41.771Z,6.40
2019-01-11T05:03:11.072Z,8.93
2019-01-11T05:05:40.353Z,7.60
2019-01-11T05:08:09.527Z,7.50
2019-01-11T05:10:38.729Z,6.53
2019-01-11T05:13:36.839Z,9.67
2019-01-11T05:16:06.305Z,8.20
2019-01-11T05:18:35.642Z,7.10
2019-01-11T05:21:04.909Z,8.70
2019-01-11T05:23:34.058Z,9.40
2019-01-11T05:26:03.365Z,7.87
2019-01-11T05:28:32.539Z,8.90
2019-01-11T05:31:01.814Z,9.03
2019-01-11T05:33:30.972Z,6.30
2019-01-11T05:36:00.257Z,9.17
2019-01-11T05:38:29.496Z,9.43
2019-01-11T05:40:58.687Z,8.63
2019-01-11T05:43:27.930Z,9.47
2019-01-11T05:45:57.153Z,8.07
2019-01-11T05:48:26.435Z,9.37
2019-01-11T05:50:55.840Z,8.80
2019-01-11T05:53:25.143Z,9.90
2019-01-11T05:55:55.220Z,9.27
2019-01-11T05:58:32.273Z,9.53
2019-01-11T06:01:01.719Z,8.17
2019-01-11T06:03:31.010Z,9.17
2019-01-11T06:06:00.202Z,9.80
2019-01-11T06:08:30.222Z,9.47
2019-01-11T06:10:59.406Z,8.60
2019-01-11T06:13:28.635Z,9.83
2019-01-11T06:15:57.900Z,9.60
2019-01-11T06:18:27.154Z,8.03
2019-01-11T06:20:56.416Z,8.73
2019-01-11T06:23:25.686Z,8.30
2019-01-11T06:25:54.864Z,7.07
2019-01-11T06:28:24.131Z,8.70
2019-01-11T06:30:53.412Z,8.80
2019-01-11T06:33:22.613Z,8.00
2019-01-11T06:35:51.793Z,9.53
2019-01-11T06:38:21.034Z,7.33
2019-01-11T06:40:50.310Z,7.97
2019-01-11T06:43:19.508Z,9.00
2019-01-11T06:45:48.740Z,9.10
2019-01-11T06:48:36.977Z,8.60
2019-01-11T06:51:06.162Z,6.60
2019-01-11T06:53:35.357Z,7.30
2019-01-11T06:56:04.644Z,8.97
2019-01-11T06:58:33.916Z,8.93
2019-01-11T07:01:03.067Z,8.40
2019-01-11T07:03:32.343Z,9.93
2019-01-11T07:06:01.501Z,8.03
2019-01-11T07:08:30.741Z,7.83
2019-01-11T07:11:00.000Z,8.63
2019-01-11T07:13:29.184Z,7.20
2019-01-11T07:15:58.367Z,7.10
2019-01-11T07:18:27.643Z,7.80
2019-01-11T07:20:56.883Z,9.43
2019-01-11T07:23:26.103Z,9.07
2019-01-11T07:25:55.368Z,9.03
2019-01-11T07:28:24.642Z,9.00
2019-01-11T07:31:05.761Z,7.90
2019-01-11T07:33:35.627Z,7.03
2019-01-11T07:36:24.229Z,6.90
2019-01-11T07:38:53.564Z,7.90
2019-01-11T07:41:22.814Z,7.23
2019-01-11T07:43:52.003Z,7.00
2019-01-11T07:46:21.253Z,6.63
2019-01-11T07:48:50.459Z,8.37
2019-01-11T07:51:19.719Z,7.60
2019-01-11T07:53:48.976Z,8.17
2019-01-11T07:56:18.150Z,7.40
2019-01-11T07:58:47.300Z,8.43
2019-01-11T08:01:16.569Z,8.13
2019-01-11T08:03:45.720Z,7.47
2019-01-11T08:06:15.013Z,8.30
2019-01-11T08:08:44.169Z,8.03
2019-01-11T08:11:13.399Z,8.93
2019-01-11T08:13:42.680Z,10.83
2019-01-11T08:16:12.059Z,9.53
2019-01-11T08:18:41.338Z,13.13
2019-01-11T08:21:10.623Z,9.97
2019-01-11T08:23:39.813Z,8.40
2019-01-11T08:26:09.101Z,8.43
2019-01-11T08:28:38.386Z,8.60
2019-01-11T08:31:07.695Z,8.90
2019-01-11T08:33:37.081Z,9.40
2019-01-11T08:36:06.555Z,8.23
2019-01-11T08:38:35.754Z,8.37
2019-01-11T08:41:05.011Z,9.60
2019-01-11T08:43:34.296Z,10.00
2019-01-11T08:46:03.557Z,8.67
2019-01-11T08:48:32.708Z,8.17
2019-01-11T08:51:02.782Z,10.73
2019-01-11T08:53:32.264Z,10.17
2019-01-11T08:56:08.074Z,9.13
2019-01-11T08:58:32.969Z,9.77
2019-01-11T09:01:02.241Z,9.57
2019-01-11T09:03:31.485Z,10.17
2019-01-11T09:06:00.692Z,11.37
2019-01-11T09:08:29.892Z,10.43
2019-01-11T09:10:59.172Z,9.20
2019-01-11T09:13:29.739Z,8.83
2019-01-11T09:15:59.046Z,8.13
2019-01-11T09:18:56.213Z,11.07
2019-01-11T09:21:25.608Z,8.83
2019-01-11T09:23:54.887Z,8.47
2019-01-11T09:26:24.232Z,10.13
2019-01-11T09:28:53.549Z,8.07
2019-01-11T09:31:22.848Z,9.50
2019-01-11T09:33:52.130Z,9.47
2019-01-11T09:36:21.418Z,9.83
2019-01-11T09:38:50.675Z,9.53
2019-01-11T09:41:20.757Z,9.10
2019-01-11T09:43:50.183Z,10.37
2019-01-11T09:46:19.370Z,11.37
2019-01-11T09:48:48.661Z,10.20
2019-01-11T09:51:17.941Z,11.43
2019-01-11T09:53:47.124Z,8.10
2019-01-11T09:56:16.497Z,8.40
2019-01-11T09:58:46.004Z,8.17
2019-01-11T10:01:15.319Z,8.67
2019-01-11T10:03:44.477Z,8.20
2019-01-11T10:06:13.794Z,6.50
2019-01-11T10:08:43.008Z,6.97
2019-01-11T10:11:13.565Z,8.10
2019-01-11T10:13:42.894Z,7.63
2019-01-11T10:16:12.209Z,7.77
2019-01-11T10:18:41.779Z,8.70
2019-01-11T10:21:11.126Z,9.10
2019-01-11T10:23:40.388Z,8.90
2019-01-11T10:26:09.673Z,8.50
2019-01-11T10:28:38.893Z,7.83
2019-01-11T10:31:08.193Z,8.07
2019-01-11T10:33:37.432Z,8.33
2019-01-11T10:36:06.761Z,8.30
2019-01-11T10:38:36.046Z,8.23
2019-01-11T10:41:05.325Z,6.90
2019-01-11T10:43:34.499Z,7.43
2019-01-11T10:46:09.499Z,7.07
2019-01-11T10:48:38.782Z,7.53
2019-01-11T10:51:08.068Z,7.43
2019-01-11T10:53:37.324Z,8.20
2019-01-11T10:56:06.748Z,7.20
2019-01-11T10:58:36.167Z,6.50
2019-01-11T11:01:05.401Z,7.53
2019-01-11T11:03:34.557Z,7.60
2019-01-11T11:06:03.847Z,6.90
2019-01-11T11:08:33.043Z,8.17
2019-01-11T11:11:02.259Z,7.13
2019-01-11T11:13:31.462Z,7.73
2019-01-11T11:16:00.753Z,7.17
2019-01-11T11:18:29.972Z,7.03
2019-01-11T11:20:59.243Z,7.43
2019-01-11T11:23:28.385Z,7.77
2019-01-11T11:25:57.617Z,8.40
2019-01-11T11:28:26.937Z,7.93
2019-01-11T11:30:56.929Z,8.40
2019-01-11T11:33:26.183Z,8.33
2019-01-11T11:35:55.480Z,7.97
2019-01-11T11:38:24.700Z,8.17
2019-01-11T11:40:54.131Z,7.97
2019-01-11T11:43:23.400Z,8.37
2019-01-11T11:45:52.668Z,7.93
2019-01-11T11:48:21.950Z,7.23
2019-01-11T11:50:51.160Z,7.67
2019-01-11T11:53:20.375Z,7.93
2019-01-11T11:55:49.667Z,6.77
2019-01-11T11:58:18.911Z,7.57
2019-01-11T12:00:48.185Z,8.27
2019-01-11T12:03:17.485Z,7.63
2019-01-11T12:05:46.916Z,8.40
2019-01-11T12:08:16.186Z,7.30
2019-01-11T12:10:45.396Z,7.17
2019-01-11T12:13:14.689Z,8.53
2019-01-11T12:15:43.951Z,8.63
2019-01-11T12:18:13.229Z,8.83
2019-01-11T12:20:42.478Z,8.67
2019-01-11T12:23:11.670Z,9.40
2019-01-11T12:25:40.862Z,8.33
2019-01-11T12:28:10.143Z,8.77
2019-01-11T12:30:39.339Z,8.90
2019-01-11T12:33:08.571Z,10.33
2019-01-11T12:35:37.888Z,9.67
2019-01-11T12:38:13.532Z,8.40
2019-01-11T12:40:38.142Z,9.97
2019-01-11T12:43:07.437Z,9.13
2019-01-11T12:45:36.763Z,9.90
2019-01-11T12:48:06.036Z,9.43
2019-01-11T12:50:35.258Z,9.73
2019-01-11T12:53:04.576Z,8.80
2019-01-11T12:55:33.871Z,9.73
2019-01-11T12:58:03.193Z,10.10
2019-01-11T13:00:32.417Z,9.03
2019-01-11T13:03:01.580Z,8.47
2019-01-11T13:05:30.878Z,9.33
2019-01-11T13:08:00.219Z,9.30
2019-01-11T13:10:29.635Z,9.13
2019-01-11T13:12:58.852Z,9.97
2019-01-11T13:15:28.205Z,10.13
2019-01-11T13:17:57.480Z,10.13
2019-01-11T13:20:26.800Z,9.30
2019-01-11T13:22:56.087Z,9.83
2019-01-11T13:25:25.343Z,9.43
2019-01-11T13:27:54.524Z,9.80
2019-01-11T13:30:23.821Z,7.43
2019-01-11T13:32:53.091Z,10.80
2019-01-11T13:35:22.368Z,8.43
2019-01-11T13:37:51.573Z,9.07
2019-01-11T13:40:22.806Z,10.10
2019-01-11T13:42:52.215Z,8.97
2019-01-11T13:45:22.561Z,9.40
2019-01-11T13:47:52.029Z,9.87
2019-01-11T13:50:40.970Z,9.50
2019-01-11T13:53:14.833Z,11.20
2019-01-11T13:55:44.158Z,10.50
2019-01-11T13:58:13.476Z,10.07
2019-01-11T14:00:42.849Z,9.97
2019-01-11T14:03:12.074Z,9.10
2019-01-11T14:05:41.358Z,9.27
2019-01-11T14:08:10.698Z,9.67
2019-01-11T14:10:39.952Z,9.00
2019-01-11T14:13:09.289Z,9.43
2019-01-11T14:15:38.695Z,8.57
2019-01-11T14:18:08.068Z,10.70
2019-01-11T14:20:37.302Z,9.53
2019-01-11T14:23:07.776Z,9.07
2019-01-11T14:25:36.973Z,9.60
2019-01-11T14:28:06.773Z,9.63
2019-01-11T14:30:36.135Z,10.93
2019-01-11T14:33:05.884Z,9.57
2019-01-11T14:35:35.694Z,10.43
2019-01-11T14:38:04.990Z,10.17
2019-01-11T14:40:34.363Z,10.47
2019-01-11T14:43:03.585Z,7.47
2019-01-11T14:45:32.848Z,10.43
2019-01-11T14:48:02.080Z,10.30
2019-01-11T14:50:31.278Z,10.93
2019-01-11T14:53:00.594Z,8.33
2019-01-11T14:55:29.920Z,8.17
2019-01-11T14:57:59.348Z,8.60
2019-01-11T15:00:28.598Z,8.77
2019-01-11T15:02:57.922Z,8.67
2019-01-11T15:05:27.164Z,7.63
2019-01-11T15:07:56.368Z,8.77
2019-01-11T15:10:25.754Z,7.43
2019-01-11T15:12:55.037Z,9.17
2019-01-11T15:15:24.310Z,9.23
2019-01-11T15:17:53.557Z,9.00
2019-01-11T15:20:22.837Z,8.50
2019-01-11T15:22:52.052Z,9.07
2019-01-11T15:25:21.389Z,7.53
2019-01-11T15:27:50.677Z,7.77
2019-01-11T15:30:20.887Z,8.57
2019-01-11T15:32:50.398Z,9.10
2019-01-11T15:35:20.017Z,9.70
2019-01-11T15:37:49.324Z,9.30
2019-01-11T15:40:29.281Z,10.87
2019-01-11T15:42:58.455Z,15.50
2019-01-11T15:45:27.754Z,22.57
2019-01-11T15:47:56.967Z,17.33
2019-01-11T15:50:48.584Z,12.80
2019-01-11T15:53:17.789Z,15.10
2019-01-11T15:55:47.214Z,9.67
2019-01-11T15:58:16.476Z,11.57
2019-01-11T16:00:47.367Z,9.70
2019-01-11T16:03:16.745Z,10.60
2019-01-11T16:05:45.964Z,9.53
2019-01-11T16:08:15.270Z,8.23
2019-01-11T16:11:27.240Z,10.00
2019-01-11T16:14:33.255Z,7.63
2019-01-11T16:17:09.169Z,6.67
2019-01-11T16:19:38.490Z,8.30
2019-01-11T16:22:07.801Z,7.30
2019-01-11T16:24:37.001Z,9.83
2019-01-11T16:27:06.318Z,10.03
2019-01-11T16:29:35.542Z,6.73
2019-01-11T16:32:04.942Z,9.10
2019-01-11T16:34:34.300Z,9.33
2019-01-11T16:37:03.614Z,10.33
2019-01-11T16:39:33.082Z,8.83
2019-01-11T16:42:02.459Z,8.57
2019-01-11T16:44:31.822Z,8.40
2019-01-11T16:47:01.128Z,8.60
2019-01-11T16:49:30.442Z,8.47
2019-01-11T16:51:59.725Z,7.27
2019-01-11T16:54:28.979Z,9.17
2019-01-11T16:56:58.243Z,7.23
2019-01-11T16:59:27.514Z,8.87
2019-01-11T17:01:56.859Z,9.43
2019-01-11T17:04:26.349Z,9.23
2019-01-11T17:06:55.733Z,8.00
2019-01-11T17:09:25.016Z,9.60
2019-01-11T17:11:54.230Z,7.20
2019-01-11T17:14:23.506Z,7.87
2019-01-11T17:16:52.814Z,11.03
2019-01-11T17:19:22.173Z,10.07
2019-01-11T17:21:51.409Z,7.60
2019-01-11T17:24:20.635Z,9.50
2019-01-11T17:26:49.870Z,10.30
2019-01-11T17:29:19.421Z,11.33
2019-01-11T17:31:48.773Z,9.10
2019-01-11T17:34:18.183Z,7.90
2019-01-11T17:36:47.499Z,11.83
2019-01-11T17:39:16.825Z,10.07
2019-01-11T17:41:46.102Z,9.10
2019-01-11T17:44:15.417Z,10.10
2019-01-11T17:46:44.698Z,8.57
2019-01-11T17:49:13.939Z,9.00
2019-01-11T17:51:43.558Z,8.33
2019-01-11T17:54:13.001Z,7.70
2019-01-11T17:56:42.262Z,10.17
2019-01-11T17:59:11.594Z,7.23
2019-01-11T18:01:40.920Z,8.87
2019-01-11T18:04:10.303Z,10.03
2019-01-11T18:06:39.674Z,8.87
2019-01-11T18:09:09.173Z,7.83
2019-01-11T18:11:38.508Z,7.57
2019-01-11T18:14:07.784Z,9.10
2019-01-11T18:16:37.074Z,10.17
2019-01-11T18:19:06.352Z,7.97
2019-01-11T18:21:35.719Z,7.90
2019-01-11T18:24:05.317Z,10.10
2019-01-11T18:26:34.585Z,10.30
2019-01-11T18:29:03.918Z,8.77
2019-01-11T18:31:33.119Z,10.07
2019-01-11T18:34:02.400Z,9.80
2019-01-11T18:36:31.782Z,8.30
2019-01-11T18:39:01.091Z,8.97
2019-01-11T18:41:30.379Z,10.80
2019-01-11T18:43:59.669Z,8.63
2019-01-11T18:46:28.939Z,8.87
2019-01-11T18:48:58.553Z,9.53
2019-01-11T18:51:27.881Z,7.90
2019-01-11T18:53:57.136Z,9.23
2019-01-11T18:56:26.448Z,10.00
2019-01-11T18:58:55.689Z,7.63
2019-01-11T19:01:24.935Z,9.87
2019-01-11T19:03:54.180Z,10.00
2019-01-11T19:06:23.484Z,7.90
2019-01-11T19:08:52.801Z,8.17
2019-01-11T19:11:22.066Z,7.37
2019-01-11T19:13:51.343Z,7.10
2019-01-11T19:16:20.567Z,8.57
2019-01-11T19:18:49.876Z,9.37
2019-01-11T19:21:19.248Z,6.87
2019-01-11T19:23:48.600Z,6.87
2019-01-11T19:26:17.885Z,7.03
2019-01-11T19:28:47.182Z,9.60
2019-01-11T19:31:16.450Z,9.17
2019-01-11T19:33:45.772Z,8.40
2019-01-11T19:36:15.183Z,10.70
2019-01-11T19:38:44.397Z,11.87
2019-01-11T19:41:13.649Z,13.07
2019-01-11T19:43:43.035Z,12.20
2019-01-11T19:46:12.570Z,10.63
2019-01-11T19:48:41.810Z,10.60
2019-01-11T19:51:11.003Z,9.70
2019-01-11T19:53:40.390Z,13.13
2019-01-11T19:56:09.614Z,9.33
2019-01-11T19:58:38.882Z,11.23
2019-01-11T20:01:08.226Z,11.00
2019-01-11T20:03:37.628Z,11.17
2019-01-11T20:06:07.282Z,9.83
2019-01-11T20:08:36.644Z,8.70
2019-01-11T20:11:05.920Z,10.27
2019-01-11T20:13:35.213Z,13.13
2019-01-11T20:16:04.608Z,10.83
2019-01-11T20:18:33.989Z,10.40
2019-01-11T20:21:03.578Z,9.50
2019-01-11T20:23:36.568Z,11.90
2019-01-11T20:26:04.270Z,12.50
2019-01-11T20:28:33.662Z,13.57
2019-01-11T20:31:02.963Z,12.77
2019-01-11T20:33:32.277Z,12.93
2019-01-11T20:36:01.615Z,10.80
2019-01-11T20:38:30.998Z,13.00
2019-01-11T20:41:00.433Z,12.23
2019-01-11T20:43:29.707Z,8.70
2019-01-11T20:46:03.067Z,12.60
2019-01-11T20:48:30.028Z,11.90
2019-01-11T20:50:59.360Z,12.27
2019-01-11T20:53:28.641Z,11.37
2019-01-11T20:55:57.950Z,12.67
2019-01-11T20:58:27.281Z,10.03
2019-01-11T21:00:56.941Z,10.90
2019-01-11T21:03:26.318Z,11.33
2019-01-11T21:05:55.610Z,10.83
2019-01-11T21:08:24.957Z,12.80
2019-01-11T21:10:54.284Z,12.30
2019-01-11T21:13:23.578Z,11.10
2019-01-11T21:15:52.934Z,12.10
2019-01-11T21:18:22.267Z,10.73
2019-01-11T21:20:51.658Z,11.10
2019-01-11T21:23:21.005Z,10.90
2019-01-11T21:25:50.280Z,11.87
2019-01-11T21:28:19.651Z,10.67
2019-01-11T21:30:48.984Z,9.93
2019-01-11T21:33:18.734Z,11.77
2019-01-11T21:35:48.135Z,11.60
2019-01-11T21:38:17.517Z,12.97
2019-01-11T21:40:46.808Z,13.43
2019-01-11T21:43:16.110Z,10.40
2019-01-11T21:45:45.427Z,8.93
2019-01-11T21:48:14.744Z,13.30
2019-01-11T21:50:44.069Z,13.23
2019-01-11T21:53:13.695Z,10.57
2019-01-11T21:55:43.031Z,9.23
2019-01-11T21:58:12.344Z,14.13
2019-01-11T22:00:46.427Z,15.47
2019-01-11T22:03:20.260Z,13.93
2019-01-11T22:05:49.709Z,13.93
2019-01-11T22:08:19.041Z,14.33
2019-01-11T22:10:48.295Z,14.53
2019-01-11T22:13:17.588Z,11.23
2019-01-11T22:15:46.957Z,14.17
2019-01-11T22:18:16.609Z,14.33
2019-01-11T22:20:46.012Z,14.63
2019-01-11T22:23:15.219Z,10.07
2019-01-11T22:25:44.712Z,10.70
2019-01-11T22:28:14.045Z,14.67
2019-01-11T22:30:43.486Z,14.03
2019-01-11T22:33:12.956Z,14.73
2019-01-11T22:35:42.316Z,16.13
2019-01-11T22:38:11.664Z,11.53
2019-01-11T22:40:40.973Z,13.33
2019-01-11T22:43:10.355Z,13.80
2019-01-11T22:45:39.661Z,9.30
2019-01-11T22:48:09.157Z,8.90
2019-01-11T22:50:38.456Z,10.00
2019-01-11T22:53:07.760Z,9.13
2019-01-11T22:55:37.079Z,11.60
2019-01-11T22:58:06.362Z,10.73
2019-01-11T23:01:32.902Z,12.70
2019-01-11T23:04:02.173Z,13.83
2019-01-11T23:06:54.037Z,12.80
2019-01-11T23:09:25.838Z,13.73
2019-01-11T23:12:15.627Z,13.43
2019-01-11T23:14:44.971Z,13.43
2019-01-11T23:17:26.217Z,10.67
2019-01-11T23:19:55.566Z,10.87
2019-01-11T23:22:25.017Z,13.13
2019-01-11T23:24:54.318Z,12.87
2019-01-11T23:27:23.640Z,14.27
2019-01-11T23:29:53.016Z,12.80
2019-01-11T23:32:22.364Z,14.00
2019-01-11T23:34:51.700Z,11.50
2019-01-11T23:37:21.014Z,15.37
2019-01-11T23:39:50.377Z,13.53
2019-01-11T23:42:19.797Z,13.10
2019-01-11T23:44:49.148Z,14.07
2019-01-11T23:47:18.425Z,11.80
2019-01-11T23:49:47.713Z,12.70
2019-01-11T23:52:16.942Z,14.70
2019-01-11T23:54:46.231Z,10.30
2019-01-11T23:57:15.514Z,12.67
2019-01-11T23:59:44.893Z,13.57
